sensor_id;sensor_type;location;lat;lon;timestamp;temperature;humidity
33023;DHT22;19390;51.460;5.710;2022-12-10T00:01:10;-1.40;99.90
33023;DHT22;19390;51.460;5.710;2022-12-10T00:03:36;-1.50;99.90
33023;DHT22;19390;51.460;5.710;2022-12-10T00:06:04;-1.50;99.90
33023;DHT22;19390;51.460;5.710;2022-12-10T00:08:30;-1.50;99.90
33023;DHT22;19390;51.460;5.710;2022-12-10T00:10:56;-1.50;99.90
33023;DHT22;19390;51.460;5.710;2022-12-10T00:13:21;-1.60;99.90
33023;DHT22;19390;51.460;5.710;2022-12-10T00:15:47;-1.70;99.90
33023;DHT22;19390;51.460;5.710;2022-12-10T00:18:13;-1.70;99.90
33023;DHT22;19390;51.460;5.710;2022-12-10T00:20:39;-1.80;99.90
33023;DHT22;19390;51.460;5.710;2022-12-10T00:23:04;-1.80;99.90
33023;DHT22;19390;51.460;5.710;2022-12-10T00:25:31;-1.90;99.90
33023;DHT22;19390;51.460;5.710;2022-12-10T00:27:57;-1.90;99.90
33023;DHT22;19390;51.460;5.710;2022-12-10T00:30:23;-1.90;99.90
33023;DHT22;19390;51.460;5.710;2022-12-10T00:32:48;-1.90;99.90
33023;DHT22;19390;51.460;5.710;2022-12-10T00:35:14;-1.80;99.90
33023;DHT22;19390;51.460;5.710;2022-12-10T00:37:40;-1.90;99.90
33023;DHT22;19390;51.460;5.710;2022-12-10T00:40:06;-1.80;99.90
33023;DHT22;19390;51.460;5.710;2022-12-10T00:42:32;-1.90;99.90
33023;DHT22;19390;51.460;5.710;2022-12-10T00:44:57;-1.90;99.90
33023;DHT22;19390;51.460;5.710;2022-12-10T00:47:23;-1.90;99.90
33023;DHT22;19390;51.460;5.710;2022-12-10T00:49:48;-1.80;99.90
33023;DHT22;19390;51.460;5.710;2022-12-10T00:52:14;-1.90;99.90
33023;DHT22;19390;51.460;5.710;2022-12-10T00:54:39;-1.90;99.90
33023;DHT22;19390;51.460;5.710;2022-12-10T00:57:06;-1.90;99.90
33023;DHT22;19390;51.460;5.710;2022-12-10T00:59:32;-1.90;99.90
33023;DHT22;19390;51.460;5.710;2022-12-10T01:01:58;-1.90;99.90
33023;DHT22;19390;51.460;5.710;2022-12-10T01:04:24;-1.90;99.90
33023;DHT22;19390;51.460;5.710;2022-12-10T01:06:53;-1.90;99.90
33023;DHT22;19390;51.460;5.710;2022-12-10T01:09:21;-2.00;99.90
33023;DHT22;19390;51.460;5.710;2022-12-10T01:11:49;-2.00;99.90
33023;DHT22;19390;51.460;5.710;2022-12-10T01:14:22;-2.00;99.90
33023;DHT22;19390;51.460;5.710;2022-12-10T01:16:49;-2.00;99.90
33023;DHT22;19390;51.460;5.710;2022-12-10T01:19:15;-2.00;99.90
33023;DHT22;19390;51.460;5.710;2022-12-10T01:21:41;-2.10;99.90
33023;DHT22;19390;51.460;5.710;2022-12-10T01:24:07;-2.10;99.90
33023;DHT22;19390;51.460;5.710;2022-12-10T01:26:34;-2.00;99.90
33023;DHT22;19390;51.460;5.710;2022-12-10T01:29:00;-2.00;99.90
33023;DHT22;19390;51.460;5.710;2022-12-10T01:31:33;-2.00;99.90
33023;DHT22;19390;51.460;5.710;2022-12-10T01:34:00;-2.00;99.90
33023;DHT22;19390;51.460;5.710;2022-12-10T01:36:37;-2.00;99.90
33023;DHT22;19390;51.460;5.710;2022-12-10T01:39:06;-2.00;99.90
33023;DHT22;19390;51.460;5.710;2022-12-10T01:41:51;-2.10;99.90
33023;DHT22;19390;51.460;5.710;2022-12-10T01:46:44;-2.20;99.90
33023;DHT22;19390;51.460;5.710;2022-12-10T01:49:15;-2.30;99.90
33023;DHT22;19390;51.460;5.710;2022-12-10T01:51:43;-2.20;99.90
33023;DHT22;19390;51.460;5.710;2022-12-10T01:56:59;-2.10;99.90
33023;DHT22;19390;51.460;5.710;2022-12-10T01:59:25;-2.20;99.90
33023;DHT22;19390;51.460;5.710;2022-12-10T02:04:33;-2.30;99.90
33023;DHT22;19390;51.460;5.710;2022-12-10T02:13:14;-2.40;99.90
33023;DHT22;19390;51.460;5.710;2022-12-10T02:15:54;-2.40;99.90
33023;DHT22;19390;51.460;5.710;2022-12-10T02:18:27;-2.40;99.90
33023;DHT22;19390;51.460;5.710;2022-12-10T02:20:57;-2.20;99.90
33023;DHT22;19390;51.460;5.710;2022-12-10T02:23:41;-2.10;99.90
33023;DHT22;19390;51.460;5.710;2022-12-10T02:29:18;-1.80;99.90
33023;DHT22;19390;51.460;5.710;2022-12-10T02:31:48;-1.80;99.90
33023;DHT22;19390;51.460;5.710;2022-12-10T02:34:16;-1.60;99.90
33023;DHT22;19390;51.460;5.710;2022-12-10T02:36:44;-1.40;99.90
33023;DHT22;19390;51.460;5.710;2022-12-10T02:39:15;-1.30;99.90
33023;DHT22;19390;51.460;5.710;2022-12-10T02:41:48;-1.20;99.90
33023;DHT22;19390;51.460;5.710;2022-12-10T02:44:16;-1.10;99.90
33023;DHT22;19390;51.460;5.710;2022-12-10T02:46:44;-1.00;99.90
33023;DHT22;19390;51.460;5.710;2022-12-10T02:49:14;-1.00;99.90
33023;DHT22;19390;51.460;5.710;2022-12-10T02:51:40;-0.90;99.90
33023;DHT22;19390;51.460;5.710;2022-12-10T02:54:37;-0.90;99.90
33023;DHT22;19390;51.460;5.710;2022-12-10T03:10:40;-0.90;99.90
33023;DHT22;19390;51.460;5.710;2022-12-10T03:13:10;-0.80;99.90
33023;DHT22;19390;51.460;5.710;2022-12-10T03:15:40;-0.70;99.90
33023;DHT22;19390;51.460;5.710;2022-12-10T03:18:07;-0.70;99.90
33023;DHT22;19390;51.460;5.710;2022-12-10T03:20:37;-0.70;99.90
33023;DHT22;19390;51.460;5.710;2022-12-10T03:23:08;-0.70;99.90
33023;DHT22;19390;51.460;5.710;2022-12-10T03:25:35;-0.70;99.90
33023;DHT22;19390;51.460;5.710;2022-12-10T03:28:03;-0.70;99.90
33023;DHT22;19390;51.460;5.710;2022-12-10T03:30:32;-0.60;99.90
33023;DHT22;19390;51.460;5.710;2022-12-10T03:32:58;-0.50;99.90
33023;DHT22;19390;51.460;5.710;2022-12-10T03:35:24;-0.60;99.90
33023;DHT22;19390;51.460;5.710;2022-12-10T03:37:50;-0.60;99.90
33023;DHT22;19390;51.460;5.710;2022-12-10T03:40:20;-0.60;99.90
33023;DHT22;19390;51.460;5.710;2022-12-10T03:42:46;-0.50;99.90
33023;DHT22;19390;51.460;5.710;2022-12-10T03:45:12;-0.50;99.90
33023;DHT22;19390;51.460;5.710;2022-12-10T03:47:39;-0.50;99.90
33023;DHT22;19390;51.460;5.710;2022-12-10T03:50:05;-0.40;99.90
33023;DHT22;19390;51.460;5.710;2022-12-10T03:52:31;-0.50;99.90
33023;DHT22;19390;51.460;5.710;2022-12-10T03:54:56;-0.50;99.90
33023;DHT22;19390;51.460;5.710;2022-12-10T03:57:22;-0.50;99.90
33023;DHT22;19390;51.460;5.710;2022-12-10T03:59:47;-0.50;99.90
33023;DHT22;19390;51.460;5.710;2022-12-10T04:02:13;-0.40;99.90
33023;DHT22;19390;51.460;5.710;2022-12-10T04:04:39;-0.40;99.90
33023;DHT22;19390;51.460;5.710;2022-12-10T04:07:04;-0.40;99.90
33023;DHT22;19390;51.460;5.710;2022-12-10T04:09:30;-0.40;99.90
33023;DHT22;19390;51.460;5.710;2022-12-10T04:11:59;-0.40;99.90
33023;DHT22;19390;51.460;5.710;2022-12-10T04:14:25;-0.40;99.90
33023;DHT22;19390;51.460;5.710;2022-12-10T04:17:10;-0.30;99.90
33023;DHT22;19390;51.460;5.710;2022-12-10T04:19:36;-0.30;99.90
33023;DHT22;19390;51.460;5.710;2022-12-10T04:22:02;-0.30;99.90
33023;DHT22;19390;51.460;5.710;2022-12-10T04:24:46;-0.30;99.90
33023;DHT22;19390;51.460;5.710;2022-12-10T04:27:35;-0.20;99.90
33023;DHT22;19390;51.460;5.710;2022-12-10T04:30:03;-0.20;99.90
33023;DHT22;19390;51.460;5.710;2022-12-10T04:32:31;-0.20;99.90
33023;DHT22;19390;51.460;5.710;2022-12-10T04:34:57;-0.20;99.90
33023;DHT22;19390;51.460;5.710;2022-12-10T04:37:23;-0.30;99.90
33023;DHT22;19390;51.460;5.710;2022-12-10T04:39:50;-0.30;99.90
33023;DHT22;19390;51.460;5.710;2022-12-10T04:42:16;-0.30;99.90
33023;DHT22;19390;51.460;5.710;2022-12-10T04:44:41;-0.20;99.90
33023;DHT22;19390;51.460;5.710;2022-12-10T04:47:08;-0.20;99.90
33023;DHT22;19390;51.460;5.710;2022-12-10T04:49:35;-0.30;99.90
33023;DHT22;19390;51.460;5.710;2022-12-10T04:52:01;-0.30;99.90
33023;DHT22;19390;51.460;5.710;2022-12-10T04:54:26;-0.30;99.90
33023;DHT22;19390;51.460;5.710;2022-12-10T04:56:52;-0.30;99.90
33023;DHT22;19390;51.460;5.710;2022-12-10T04:59:18;-0.30;99.90
33023;DHT22;19390;51.460;5.710;2022-12-10T05:01:44;-0.40;99.90
33023;DHT22;19390;51.460;5.710;2022-12-10T05:04:12;-0.40;99.90
33023;DHT22;19390;51.460;5.710;2022-12-10T05:06:38;-0.40;99.90
33023;DHT22;19390;51.460;5.710;2022-12-10T05:09:04;-0.40;99.90
33023;DHT22;19390;51.460;5.710;2022-12-10T05:11:33;-0.40;99.90
33023;DHT22;19390;51.460;5.710;2022-12-10T05:13:59;-0.40;99.90
33023;DHT22;19390;51.460;5.710;2022-12-10T05:16:27;-0.50;99.90
33023;DHT22;19390;51.460;5.710;2022-12-10T05:18:54;-0.40;99.90
33023;DHT22;19390;51.460;5.710;2022-12-10T05:21:21;-0.40;99.90
33023;DHT22;19390;51.460;5.710;2022-12-10T05:23:50;-0.30;99.90
33023;DHT22;19390;51.460;5.710;2022-12-10T05:26:21;-0.30;99.90
33023;DHT22;19390;51.460;5.710;2022-12-10T05:28:55;-0.40;99.90
33023;DHT22;19390;51.460;5.710;2022-12-10T05:31:26;-0.40;99.90
33023;DHT22;19390;51.460;5.710;2022-12-10T05:33:53;-0.40;99.90
33023;DHT22;19390;51.460;5.710;2022-12-10T05:36:21;-0.30;99.90
33023;DHT22;19390;51.460;5.710;2022-12-10T05:38:47;-0.30;99.90
33023;DHT22;19390;51.460;5.710;2022-12-10T05:41:16;-0.40;99.90
33023;DHT22;19390;51.460;5.710;2022-12-10T05:43:43;-0.40;99.90
33023;DHT22;19390;51.460;5.710;2022-12-10T05:46:11;-0.40;99.90
33023;DHT22;19390;51.460;5.710;2022-12-10T05:48:37;-0.40;99.90
33023;DHT22;19390;51.460;5.710;2022-12-10T05:51:07;-0.40;99.90
33023;DHT22;19390;51.460;5.710;2022-12-10T05:53:33;-0.40;99.90
33023;DHT22;19390;51.460;5.710;2022-12-10T05:56:14;-0.40;99.90
33023;DHT22;19390;51.460;5.710;2022-12-10T05:58:42;-0.40;99.90
33023;DHT22;19390;51.460;5.710;2022-12-10T06:01:10;-0.40;99.90
33023;DHT22;19390;51.460;5.710;2022-12-10T06:03:36;-0.40;99.90
33023;DHT22;19390;51.460;5.710;2022-12-10T06:06:02;-0.30;99.90
33023;DHT22;19390;51.460;5.710;2022-12-10T06:08:28;-0.30;99.90
33023;DHT22;19390;51.460;5.710;2022-12-10T06:10:54;-0.40;99.90
33023;DHT22;19390;51.460;5.710;2022-12-10T06:13:20;-0.40;99.90
33023;DHT22;19390;51.460;5.710;2022-12-10T06:15:45;-0.40;99.90
33023;DHT22;19390;51.460;5.710;2022-12-10T06:18:11;-0.40;99.90
33023;DHT22;19390;51.460;5.710;2022-12-10T06:20:38;-0.40;99.90
33023;DHT22;19390;51.460;5.710;2022-12-10T06:23:05;-0.40;99.90
33023;DHT22;19390;51.460;5.710;2022-12-10T06:25:30;-0.40;99.90
33023;DHT22;19390;51.460;5.710;2022-12-10T06:27:56;-0.40;99.90
33023;DHT22;19390;51.460;5.710;2022-12-10T06:30:22;-0.40;99.90
33023;DHT22;19390;51.460;5.710;2022-12-10T06:32:47;-0.40;99.90
33023;DHT22;19390;51.460;5.710;2022-12-10T06:35:13;-0.50;99.90
33023;DHT22;19390;51.460;5.710;2022-12-10T06:37:38;-0.50;99.90
33023;DHT22;19390;51.460;5.710;2022-12-10T06:40:04;-0.50;99.90
33023;DHT22;19390;51.460;5.710;2022-12-10T06:42:30;-0.50;99.90
33023;DHT22;19390;51.460;5.710;2022-12-10T06:44:56;-0.40;99.90
33023;DHT22;19390;51.460;5.710;2022-12-10T06:47:22;-0.50;99.90
33023;DHT22;19390;51.460;5.710;2022-12-10T06:49:47;-0.50;99.90
33023;DHT22;19390;51.460;5.710;2022-12-10T06:52:13;-0.50;99.90
33023;DHT22;19390;51.460;5.710;2022-12-10T06:54:39;-0.60;99.90
33023;DHT22;19390;51.460;5.710;2022-12-10T06:57:04;-0.50;99.90
33023;DHT22;19390;51.460;5.710;2022-12-10T06:59:30;-0.50;99.90
33023;DHT22;19390;51.460;5.710;2022-12-10T07:01:56;-0.60;99.90
33023;DHT22;19390;51.460;5.710;2022-12-10T07:04:21;-0.60;99.90
33023;DHT22;19390;51.460;5.710;2022-12-10T07:06:47;-0.60;99.90
33023;DHT22;19390;51.460;5.710;2022-12-10T07:09:12;-0.60;99.90
33023;DHT22;19390;51.460;5.710;2022-12-10T07:11:38;-0.50;99.90
33023;DHT22;19390;51.460;5.710;2022-12-10T07:14:04;-0.50;99.90
33023;DHT22;19390;51.460;5.710;2022-12-10T07:16:31;-0.50;99.90
33023;DHT22;19390;51.460;5.710;2022-12-10T07:18:59;-0.40;99.90
33023;DHT22;19390;51.460;5.710;2022-12-10T07:21:27;-0.40;99.90
33023;DHT22;19390;51.460;5.710;2022-12-10T07:23:55;-0.40;99.90
33023;DHT22;19390;51.460;5.710;2022-12-10T07:26:30;-0.40;99.90
33023;DHT22;19390;51.460;5.710;2022-12-10T07:28:56;-0.40;99.90
33023;DHT22;19390;51.460;5.710;2022-12-10T07:31:22;-0.70;99.90
33023;DHT22;19390;51.460;5.710;2022-12-10T07:33:49;-0.70;99.90
33023;DHT22;19390;51.460;5.710;2022-12-10T07:36:15;-0.70;99.90
33023;DHT22;19390;51.460;5.710;2022-12-10T07:38:41;-0.80;99.90
33023;DHT22;19390;51.460;5.710;2022-12-10T07:41:10;-0.70;99.90
33023;DHT22;19390;51.460;5.710;2022-12-10T07:43:37;-0.70;99.90
33023;DHT22;19390;51.460;5.710;2022-12-10T07:46:05;-0.70;99.90
33023;DHT22;19390;51.460;5.710;2022-12-10T07:48:31;-0.70;99.90
33023;DHT22;19390;51.460;5.710;2022-12-10T07:50:57;-0.70;99.90
33023;DHT22;19390;51.460;5.710;2022-12-10T07:53:23;-0.70;99.90
33023;DHT22;19390;51.460;5.710;2022-12-10T07:55:49;-0.70;99.90
33023;DHT22;19390;51.460;5.710;2022-12-10T07:58:15;-0.70;99.90
33023;DHT22;19390;51.460;5.710;2022-12-10T08:00:41;-0.70;99.90
33023;DHT22;19390;51.460;5.710;2022-12-10T08:03:06;-0.70;99.90
33023;DHT22;19390;51.460;5.710;2022-12-10T08:05:32;-0.70;99.90
33023;DHT22;19390;51.460;5.710;2022-12-10T08:07:58;-0.60;99.90
33023;DHT22;19390;51.460;5.710;2022-12-10T08:10:23;-0.70;99.90
33023;DHT22;19390;51.460;5.710;2022-12-10T08:12:49;-0.60;99.90
33023;DHT22;19390;51.460;5.710;2022-12-10T08:15:14;-0.60;99.90
33023;DHT22;19390;51.460;5.710;2022-12-10T08:17:40;-0.50;99.90
33023;DHT22;19390;51.460;5.710;2022-12-10T08:20:06;-0.50;99.90
33023;DHT22;19390;51.460;5.710;2022-12-10T08:22:33;-0.60;99.90
33023;DHT22;19390;51.460;5.710;2022-12-10T08:24:59;-0.60;99.90
33023;DHT22;19390;51.460;5.710;2022-12-10T08:27:25;-0.50;99.90
33023;DHT22;19390;51.460;5.710;2022-12-10T08:29:51;-0.50;99.90
33023;DHT22;19390;51.460;5.710;2022-12-10T08:32:16;-0.50;99.90
33023;DHT22;19390;51.460;5.710;2022-12-10T08:34:42;-0.40;99.90
33023;DHT22;19390;51.460;5.710;2022-12-10T08:37:07;-0.40;99.90
33023;DHT22;19390;51.460;5.710;2022-12-10T08:39:33;-0.40;99.90
33023;DHT22;19390;51.460;5.710;2022-12-10T08:41:59;-0.50;99.90
33023;DHT22;19390;51.460;5.710;2022-12-10T08:44:24;-0.60;99.90
33023;DHT22;19390;51.460;5.710;2022-12-10T08:46:50;-0.50;99.90
33023;DHT22;19390;51.460;5.710;2022-12-10T08:49:15;-0.50;99.90
33023;DHT22;19390;51.460;5.710;2022-12-10T08:51:41;-0.50;99.90
33023;DHT22;19390;51.460;5.710;2022-12-10T08:54:07;-0.50;99.90
33023;DHT22;19390;51.460;5.710;2022-12-10T08:56:33;-0.50;99.90
33023;DHT22;19390;51.460;5.710;2022-12-10T08:58:58;-0.40;99.90
33023;DHT22;19390;51.460;5.710;2022-12-10T09:01:24;-0.40;99.90
33023;DHT22;19390;51.460;5.710;2022-12-10T09:03:50;-0.50;99.90
33023;DHT22;19390;51.460;5.710;2022-12-10T09:06:18;-0.50;99.90
33023;DHT22;19390;51.460;5.710;2022-12-10T09:08:44;-0.40;99.90
33023;DHT22;19390;51.460;5.710;2022-12-10T09:11:23;-0.50;99.90
33023;DHT22;19390;51.460;5.710;2022-12-10T09:13:49;-0.30;99.90
33023;DHT22;19390;51.460;5.710;2022-12-10T09:16:15;-0.50;99.90
33023;DHT22;19390;51.460;5.710;2022-12-10T09:18:41;-0.40;99.90
33023;DHT22;19390;51.460;5.710;2022-12-10T09:21:15;-0.40;99.90
33023;DHT22;19390;51.460;5.710;2022-12-10T09:23:42;-0.50;99.90
33023;DHT22;19390;51.460;5.710;2022-12-10T09:26:11;-0.50;99.90
33023;DHT22;19390;51.460;5.710;2022-12-10T09:28:38;-0.50;99.90
33023;DHT22;19390;51.460;5.710;2022-12-10T09:31:05;-0.50;99.90
33023;DHT22;19390;51.460;5.710;2022-12-10T09:33:31;-0.40;99.90
33023;DHT22;19390;51.460;5.710;2022-12-10T09:35:57;-0.40;99.90
33023;DHT22;19390;51.460;5.710;2022-12-10T09:38:23;-0.30;99.90
33023;DHT22;19390;51.460;5.710;2022-12-10T09:46:40;-0.30;99.90
33023;DHT22;19390;51.460;5.710;2022-12-10T09:51:39;-0.30;99.90
33023;DHT22;19390;51.460;5.710;2022-12-10T09:54:32;-0.30;99.90
33023;DHT22;19390;51.460;5.710;2022-12-10T09:56:59;-0.20;99.90
33023;DHT22;19390;51.460;5.710;2022-12-10T09:59:38;-0.10;99.90
33023;DHT22;19390;51.460;5.710;2022-12-10T10:04:39;0.00;99.90
33023;DHT22;19390;51.460;5.710;2022-12-10T10:07:05;-0.20;99.90
33023;DHT22;19390;51.460;5.710;2022-12-10T10:09:37;-0.20;99.90
33023;DHT22;19390;51.460;5.710;2022-12-10T10:12:12;-0.20;99.90
33023;DHT22;19390;51.460;5.710;2022-12-10T10:14:38;-0.20;99.90
33023;DHT22;19390;51.460;5.710;2022-12-10T10:17:11;-0.20;99.90
33023;DHT22;19390;51.460;5.710;2022-12-10T10:19:38;-0.20;99.90
33023;DHT22;19390;51.460;5.710;2022-12-10T10:22:08;-0.20;99.90
33023;DHT22;19390;51.460;5.710;2022-12-10T10:24:38;-0.10;99.90
33023;DHT22;19390;51.460;5.710;2022-12-10T10:27:27;-0.10;99.90
33023;DHT22;19390;51.460;5.710;2022-12-10T10:29:56;0.00;99.90
33023;DHT22;19390;51.460;5.710;2022-12-10T10:32:25;-0.10;99.90
33023;DHT22;19390;51.460;5.710;2022-12-10T10:34:54;0.00;99.90
33023;DHT22;19390;51.460;5.710;2022-12-10T10:39:53;0.00;99.90
33023;DHT22;19390;51.460;5.710;2022-12-10T10:42:38;0.10;99.90
33023;DHT22;19390;51.460;5.710;2022-12-10T10:45:10;0.00;99.90
33023;DHT22;19390;51.460;5.710;2022-12-10T10:48:16;-0.30;99.90
33023;DHT22;19390;51.460;5.710;2022-12-10T10:50:54;-0.20;99.90
33023;DHT22;19390;51.460;5.710;2022-12-10T10:53:26;-0.10;99.90
33023;DHT22;19390;51.460;5.710;2022-12-10T10:55:56;-0.10;99.90
33023;DHT22;19390;51.460;5.710;2022-12-10T10:58:23;0.00;99.90
33023;DHT22;19390;51.460;5.710;2022-12-10T11:01:01;-0.10;99.90
33023;DHT22;19390;51.460;5.710;2022-12-10T11:03:29;0.00;99.90
33023;DHT22;19390;51.460;5.710;2022-12-10T11:05:56;0.00;99.90
33023;DHT22;19390;51.460;5.710;2022-12-10T11:08:25;-0.20;99.90
33023;DHT22;19390;51.460;5.710;2022-12-10T11:10:55;-0.20;99.90
33023;DHT22;19390;51.460;5.710;2022-12-10T11:13:26;-0.20;99.90
33023;DHT22;19390;51.460;5.710;2022-12-10T11:18:43;-0.20;99.90
33023;DHT22;19390;51.460;5.710;2022-12-10T11:21:19;-0.10;99.90
33023;DHT22;19390;51.460;5.710;2022-12-10T11:23:49;0.00;99.90
33023;DHT22;19390;51.460;5.710;2022-12-10T11:35:30;0.10;99.90
33023;DHT22;19390;51.460;5.710;2022-12-10T11:51:08;0.20;99.90
33023;DHT22;19390;51.460;5.710;2022-12-10T12:04:00;-0.10;99.90
33023;DHT22;19390;51.460;5.710;2022-12-10T12:09:28;0.10;99.90
33023;DHT22;19390;51.460;5.710;2022-12-10T12:12:28;0.20;99.90
33023;DHT22;19390;51.460;5.710;2022-12-10T12:15:02;0.20;99.90
33023;DHT22;19390;51.460;5.710;2022-12-10T12:17:45;0.10;99.90
33023;DHT22;19390;51.460;5.710;2022-12-10T12:20:38;0.10;99.90
33023;DHT22;19390;51.460;5.710;2022-12-10T12:23:16;0.20;99.90
33023;DHT22;19390;51.460;5.710;2022-12-10T12:25:56;0.30;99.90
33023;DHT22;19390;51.460;5.710;2022-12-10T12:28:32;0.20;99.90
33023;DHT22;19390;51.460;5.710;2022-12-10T12:31:22;0.20;99.90
33023;DHT22;19390;51.460;5.710;2022-12-10T12:33:59;0.20;99.90
33023;DHT22;19390;51.460;5.710;2022-12-10T12:36:30;0.10;99.90
33023;DHT22;19390;51.460;5.710;2022-12-10T12:44:20;0.20;99.90
33023;DHT22;19390;51.460;5.710;2022-12-10T12:46:47;0.30;99.90
33023;DHT22;19390;51.460;5.710;2022-12-10T12:49:27;0.20;99.90
33023;DHT22;19390;51.460;5.710;2022-12-10T12:52:00;0.20;99.90
33023;DHT22;19390;51.460;5.710;2022-12-10T12:54:27;0.20;99.90
33023;DHT22;19390;51.460;5.710;2022-12-10T13:03:00;0.10;99.90
33023;DHT22;19390;51.460;5.710;2022-12-10T13:05:36;0.20;99.90
33023;DHT22;19390;51.460;5.710;2022-12-10T13:14:01;0.10;99.90
33023;DHT22;19390;51.460;5.710;2022-12-10T13:30:03;0.40;99.90
33023;DHT22;19390;51.460;5.710;2022-12-10T13:42:44;0.20;99.90
33023;DHT22;19390;51.460;5.710;2022-12-10T13:45:45;0.10;99.90
33023;DHT22;19390;51.460;5.710;2022-12-10T13:48:26;0.00;99.90
33023;DHT22;19390;51.460;5.710;2022-12-10T13:51:36;0.10;99.90
33023;DHT22;19390;51.460;5.710;2022-12-10T13:56:28;0.20;99.90
33023;DHT22;19390;51.460;5.710;2022-12-10T14:04:45;0.20;99.90
33023;DHT22;19390;51.460;5.710;2022-12-10T14:07:17;0.30;99.90
33023;DHT22;19390;51.460;5.710;2022-12-10T14:09:54;0.30;99.90
33023;DHT22;19390;51.460;5.710;2022-12-10T14:12:31;0.30;99.90
33023;DHT22;19390;51.460;5.710;2022-12-10T14:15:16;0.20;99.90
33023;DHT22;19390;51.460;5.710;2022-12-10T14:17:44;0.20;99.90
33023;DHT22;19390;51.460;5.710;2022-12-10T14:20:25;0.20;99.90
33023;DHT22;19390;51.460;5.710;2022-12-10T14:22:53;0.20;99.90
33023;DHT22;19390;51.460;5.710;2022-12-10T14:25:45;0.10;99.90
33023;DHT22;19390;51.460;5.710;2022-12-10T14:28:15;0.20;99.90
33023;DHT22;19390;51.460;5.710;2022-12-10T14:30:47;0.00;99.90
33023;DHT22;19390;51.460;5.710;2022-12-10T14:33:16;0.10;99.90
33023;DHT22;19390;51.460;5.710;2022-12-10T14:35:43;0.10;99.90
33023;DHT22;19390;51.460;5.710;2022-12-10T14:38:29;0.10;99.90
33023;DHT22;19390;51.460;5.710;2022-12-10T14:40:55;0.10;99.90
33023;DHT22;19390;51.460;5.710;2022-12-10T14:43:39;0.20;99.90
33023;DHT22;19390;51.460;5.710;2022-12-10T14:46:13;0.20;99.90
33023;DHT22;19390;51.460;5.710;2022-12-10T14:48:41;0.20;99.90
33023;DHT22;19390;51.460;5.710;2022-12-10T14:51:17;0.30;99.90
33023;DHT22;19390;51.460;5.710;2022-12-10T14:53:45;0.40;99.90
33023;DHT22;19390;51.460;5.710;2022-12-10T14:56:33;0.30;99.90
33023;DHT22;19390;51.460;5.710;2022-12-10T14:59:15;0.40;99.90
33023;DHT22;19390;51.460;5.710;2022-12-10T15:01:47;0.40;99.90
33023;DHT22;19390;51.460;5.710;2022-12-10T15:04:19;0.30;99.90
33023;DHT22;19390;51.460;5.710;2022-12-10T15:06:45;0.30;99.90
33023;DHT22;19390;51.460;5.710;2022-12-10T15:09:30;0.30;99.90
33023;DHT22;19390;51.460;5.710;2022-12-10T15:11:58;0.30;99.90
33023;DHT22;19390;51.460;5.710;2022-12-10T15:14:25;0.30;99.90
33023;DHT22;19390;51.460;5.710;2022-12-10T15:16:51;0.30;99.90
33023;DHT22;19390;51.460;5.710;2022-12-10T15:22:20;0.40;99.90
33023;DHT22;19390;51.460;5.710;2022-12-10T15:24:46;0.40;99.90
33023;DHT22;19390;51.460;5.710;2022-12-10T15:27:21;0.40;99.90
33023;DHT22;19390;51.460;5.710;2022-12-10T15:29:48;0.30;99.90
33023;DHT22;19390;51.460;5.710;2022-12-10T15:32:19;0.30;99.90
33023;DHT22;19390;51.460;5.710;2022-12-10T15:34:47;0.40;99.90
33023;DHT22;19390;51.460;5.710;2022-12-10T15:37:52;0.40;99.90
33023;DHT22;19390;51.460;5.710;2022-12-10T15:40:27;0.30;99.90
33023;DHT22;19390;51.460;5.710;2022-12-10T15:42:56;0.30;99.90
33023;DHT22;19390;51.460;5.710;2022-12-10T15:45:41;0.40;99.90
33023;DHT22;19390;51.460;5.710;2022-12-10T15:48:10;0.30;99.90
33023;DHT22;19390;51.460;5.710;2022-12-10T15:50:37;0.30;99.90
33023;DHT22;19390;51.460;5.710;2022-12-10T15:53:03;0.30;99.90
33023;DHT22;19390;51.460;5.710;2022-12-10T15:55:29;0.40;99.90
33023;DHT22;19390;51.460;5.710;2022-12-10T15:57:55;0.40;99.90
33023;DHT22;19390;51.460;5.710;2022-12-10T16:00:26;0.40;99.90
33023;DHT22;19390;51.460;5.710;2022-12-10T16:03:00;0.40;99.90
33023;DHT22;19390;51.460;5.710;2022-12-10T16:05:32;0.40;99.90
33023;DHT22;19390;51.460;5.710;2022-12-10T16:08:21;0.50;99.90
33023;DHT22;19390;51.460;5.710;2022-12-10T16:10:47;0.40;99.90
33023;DHT22;19390;51.460;5.710;2022-12-10T16:13:17;0.40;99.90
33023;DHT22;19390;51.460;5.710;2022-12-10T16:18:12;0.80;99.90
33023;DHT22;19390;51.460;5.710;2022-12-10T16:20:38;0.80;99.90
33023;DHT22;19390;51.460;5.710;2022-12-10T16:23:03;0.70;99.90
33023;DHT22;19390;51.460;5.710;2022-12-10T16:25:32;0.60;99.90
33023;DHT22;19390;51.460;5.710;2022-12-10T16:27:58;0.50;99.90
33023;DHT22;19390;51.460;5.710;2022-12-10T16:30:32;0.50;99.90
33023;DHT22;19390;51.460;5.710;2022-12-10T16:32:58;0.70;99.90
33023;DHT22;19390;51.460;5.710;2022-12-10T16:35:24;0.60;99.90
33023;DHT22;19390;51.460;5.710;2022-12-10T16:37:50;0.60;99.90
33023;DHT22;19390;51.460;5.710;2022-12-10T16:40:21;0.70;99.90
33023;DHT22;19390;51.460;5.710;2022-12-10T16:42:47;1.10;99.90
33023;DHT22;19390;51.460;5.710;2022-12-10T16:45:21;0.90;99.90
33023;DHT22;19390;51.460;5.710;2022-12-10T16:47:47;1.30;99.90
33023;DHT22;19390;51.460;5.710;2022-12-10T16:50:14;0.70;99.90
33023;DHT22;19390;51.460;5.710;2022-12-10T16:52:41;0.60;99.90
33023;DHT22;19390;51.460;5.710;2022-12-10T16:55:17;0.80;99.90
33023;DHT22;19390;51.460;5.710;2022-12-10T16:57:45;1.00;99.90
33023;DHT22;19390;51.460;5.710;2022-12-10T17:00:16;0.90;99.90
33023;DHT22;19390;51.460;5.710;2022-12-10T17:02:42;0.70;99.90
33023;DHT22;19390;51.460;5.710;2022-12-10T17:05:24;0.80;99.90
33023;DHT22;19390;51.460;5.710;2022-12-10T17:07:52;0.90;99.90
33023;DHT22;19390;51.460;5.710;2022-12-10T17:10:17;0.80;99.90
33023;DHT22;19390;51.460;5.710;2022-12-10T17:13:03;0.60;99.90
33023;DHT22;19390;51.460;5.710;2022-12-10T17:15:29;0.80;99.90
33023;DHT22;19390;51.460;5.710;2022-12-10T17:17:54;0.90;99.90
33023;DHT22;19390;51.460;5.710;2022-12-10T17:20:20;0.60;99.90
33023;DHT22;19390;51.460;5.710;2022-12-10T17:22:45;1.30;99.90
33023;DHT22;19390;51.460;5.710;2022-12-10T17:25:11;0.90;99.90
33023;DHT22;19390;51.460;5.710;2022-12-10T17:27:37;0.80;99.90
33023;DHT22;19390;51.460;5.710;2022-12-10T17:30:03;0.60;99.90
33023;DHT22;19390;51.460;5.710;2022-12-10T17:32:29;0.80;99.90
33023;DHT22;19390;51.460;5.710;2022-12-10T17:34:55;0.60;99.90
33023;DHT22;19390;51.460;5.710;2022-12-10T17:37:21;0.60;99.90
33023;DHT22;19390;51.460;5.710;2022-12-10T17:39:47;0.70;99.90
33023;DHT22;19390;51.460;5.710;2022-12-10T17:42:13;0.70;99.90
33023;DHT22;19390;51.460;5.710;2022-12-10T17:44:39;0.70;99.90
33023;DHT22;19390;51.460;5.710;2022-12-10T17:47:22;0.70;99.90
33023;DHT22;19390;51.460;5.710;2022-12-10T17:49:49;0.70;99.90
33023;DHT22;19390;51.460;5.710;2022-12-10T17:52:15;0.70;99.90
33023;DHT22;19390;51.460;5.710;2022-12-10T17:54:41;0.70;99.90
33023;DHT22;19390;51.460;5.710;2022-12-10T17:57:22;0.70;99.90
33023;DHT22;19390;51.460;5.710;2022-12-10T17:59:48;0.70;99.90
33023;DHT22;19390;51.460;5.710;2022-12-10T18:02:14;0.80;99.90
33023;DHT22;19390;51.460;5.710;2022-12-10T18:04:40;0.70;99.90
33023;DHT22;19390;51.460;5.710;2022-12-10T18:07:14;0.80;99.90